M I D A S
Marine Information and Data Acquisition System
Tripno 1358 of the Zeeleeuw from 2007-09-27 06:33:04 to 2007-09-27 14:06:36
Back to CruiseResearch ActivitiesStationsMapUnderway DataData graphs

EquipmentUnitsComment
TimeDGPSUTC
LatitudeDGPSDM.mWGS84
LongitudeDGPSDM.mWGS84
HeadingGyrodeg 
SOGDGPSknotsSpeed over ground
COGDGPSdegCourse over ground
DepthEcho soundermeters200 kHz
Missing or incorrect values are displayed as -999
Navigation data collected by the RV Zeeleeuw from 2007-09-27 06:35:30 to 2007-09-27 14:17:11
                                                                                    Next 1000 lines
Time Latitude Longitude Heading SOG COG Depth
2007-09-27 06:35:41 51°13.603 2°56.096 110.8 0.6 294 6.6
2007-09-27 06:35:45 51°13.603 2°56.094 110.8 1.1 295 6.8
2007-09-27 06:35:50 51°13.604 2°56.091 110.9 1.5 293 6.7
2007-09-27 06:35:55 51°13.605 2°56.087 111 2.1 292 6.9
2007-09-27 06:36:00 51°13.606 2°56.081 111.4 2.5 292 6.9
2007-09-27 06:36:06 51°13.608 2°56.074 111.7 2.9 292 -999
2007-09-27 06:36:11 51°13.61 2°56.068 112 3.2 292 -999
2007-09-27 06:36:16 51°13.612 2°56.061 112 3.5 293 -999
2007-09-27 06:36:21 51°13.614 2°56.053 112.1 3.7 292 -999
2007-09-27 06:36:26 51°13.616 2°56.045 112.2 3.9 291 -999
2007-09-27 06:36:31 51°13.618 2°56.036 112.2 4.1 291 -999
2007-09-27 06:36:36 51°13.62 2°56.027 112.2 4.3 290 -999
2007-09-27 06:36:41 51°13.622 2°56.018 112.5 4.4 291 -999
2007-09-27 06:36:45 51°13.624 2°56.01 113.3 4.7 291 -999
2007-09-27 06:36:51 51°13.627 2°55.999 114.1 4.8 293 -999
2007-09-27 06:36:56 51°13.63 2°55.989 115.2 5 294 -999
2007-09-27 06:37:01 51°13.633 2°55.978 116.3 5.1 295 -999
2007-09-27 06:37:05 51°13.635 2°55.97 117.4 5.3 296 -999
2007-09-27 06:37:11 51°13.64 2°55.957 118.2 5.4 297 -999
2007-09-27 06:37:16 51°13.643 2°55.946 118.9 5.5 297 -999
2007-09-27 06:37:21 51°13.647 2°55.935 119.1 5.6 297 -999
2007-09-27 06:37:26 51°13.65 2°55.925 119.2 5.6 297 -999
2007-09-27 06:37:31 51°13.654 2°55.914 119.4 5.6 297 -999
2007-09-27 06:37:36 51°13.657 2°55.902 119.5 5.7 297 -999
2007-09-27 06:37:41 51°13.661 2°55.891 119.3 5.6 296 -999
2007-09-27 06:37:46 51°13.664 2°55.88 119.5 5.6 296 -999
2007-09-27 06:37:51 51°13.668 2°55.869 120.4 5.6 296 -999
2007-09-27 06:37:56 51°13.671 2°55.858 121.6 5.6 297 -999
2007-09-27 06:38:01 51°13.675 2°55.847 123.4 5.7 299 -999
2007-09-27 06:38:06 51°13.679 2°55.836 126.2 5.8 302 -999
2007-09-27 06:38:11 51°13.684 2°55.826 129.4 5.8 305 -999
2007-09-27 06:38:16 51°13.689 2°55.816 132.4 5.8 308 -999
2007-09-27 06:38:20 51°13.693 2°55.809 135.2 5.8 311 -999
2007-09-27 06:38:26 51°13.7 2°55.797 137.5 5.8 313 -999
2007-09-27 06:38:31 51°13.706 2°55.788 139.1 5.9 315 -999
2007-09-27 06:38:36 51°13.712 2°55.779 140.8 5.9 316 -999
2007-09-27 06:38:41 51°13.718 2°55.77 143.1 5.9 318 -999
2007-09-27 06:38:46 51°13.724 2°55.763 144.6 5.6 320 -999
2007-09-27 06:38:51 51°13.729 2°55.756 146.5 5.2 322 -999
2007-09-27 06:38:56 51°13.734 2°55.75 148.1 4.5 323 11.2
2007-09-27 06:39:01 51°13.738 2°55.745 149.1 3.6 322 10.8
2007-09-27 06:39:05 51°13.741 2°55.742 149.4 3.3 323 10.5
2007-09-27 06:39:10 51°13.744 2°55.738 148.7 3.1 323 10.3
2007-09-27 06:39:16 51°13.748 2°55.734 148.9 2.8 324 10.2
2007-09-27 06:39:21 51°13.75 2°55.731 150.3 2.3 323 9.8
2007-09-27 06:39:25 51°13.752 2°55.729 150.8 1.8 323 -999
2007-09-27 06:39:31 51°13.754 2°55.726 150.4 1.5 322 9.6
2007-09-27 06:39:36 51°13.755 2°55.725 148.9 1.3 321 9.5
2007-09-27 06:39:41 51°13.756 2°55.723 148 1.2 318 9.5
2007-09-27 06:39:46 51°13.757 2°55.721 146.6 1.2 323 -999
2007-09-27 06:39:51 51°13.759 2°55.719 145.9 1.3 318 -999
2007-09-27 06:39:56 51°13.761 2°55.717 145.9 1.5 322 -999
2007-09-27 06:40:01 51°13.762 2°55.715 146 1.8 321 -999
2007-09-27 06:40:06 51°13.765 2°55.712 146.4 2 322 -999
2007-09-27 06:40:11 51°13.767 2°55.709 146.6 2.1 322 9.2
2007-09-27 06:40:15 51°13.769 2°55.707 146.6 2.3 323 9.2
2007-09-27 06:40:21 51°13.772 2°55.702 146.6 2.4 322 -999
2007-09-27 06:40:26 51°13.775 2°55.699 146.6 2.6 323 -999
2007-09-27 06:40:31 51°13.778 2°55.695 147.2 2.8 323 -999
2007-09-27 06:40:36 51°13.781 2°55.691 147.8 3 324 -999
2007-09-27 06:40:40 51°13.784 2°55.688 148.2 3.2 324 -999
2007-09-27 06:40:46 51°13.789 2°55.683 148.8 3.4 326 -999
2007-09-27 06:40:51 51°13.793 2°55.678 149.5 3.6 327 -999
2007-09-27 06:40:56 51°13.797 2°55.674 150.2 3.7 328 -999
2007-09-27 06:41:01 51°13.802 2°55.67 151 3.8 329 -999
2007-09-27 06:41:06 51°13.807 2°55.666 151.9 3.9 330 -999
2007-09-27 06:41:11 51°13.812 2°55.661 152.5 4.1 331 -999
2007-09-27 06:41:16 51°13.817 2°55.657 152.9 4.3 332 -999
2007-09-27 06:41:21 51°13.822 2°55.652 153.3 4.3 331 -999
2007-09-27 06:41:25 51°13.826 2°55.649 153.7 4.2 332 -999
2007-09-27 06:41:31 51°13.832 2°55.643 154.2 4.2 331 -999
2007-09-27 06:41:36 51°13.838 2°55.639 154.9 4.2 333 -999
2007-09-27 06:41:41 51°13.843 2°55.635 155.8 4.3 333 -999
2007-09-27 06:41:45 51°13.848 2°55.631 157.2 4.5 335 -999
2007-09-27 06:41:50 51°13.853 2°55.627 159 4.6 336 -999
2007-09-27 06:41:56 51°13.861 2°55.622 161.5 4.7 338 -999
2007-09-27 06:42:01 51°13.867 2°55.619 163.9 4.7 340 -999
2007-09-27 06:42:06 51°13.872 2°55.616 166.3 4.5 341 -999
2007-09-27 06:42:11 51°13.878 2°55.613 168.1 4.4 343 -999
2007-09-27 06:42:16 51°13.883 2°55.611 170 4.3 345 -999
2007-09-27 06:42:21 51°13.888 2°55.609 172 4.2 347 -999
2007-09-27 06:42:26 51°13.893 2°55.607 174.1 4 348 -999
2007-09-27 06:42:31 51°13.899 2°55.606 175.8 3.8 349 -999
2007-09-27 06:42:36 51°13.903 2°55.604 177.9 3.6 350 -999
2007-09-27 06:42:41 51°13.908 2°55.603 179.7 3.5 352 -999
2007-09-27 06:42:46 51°13.913 2°55.602 181.4 3.3 353 -999
2007-09-27 06:42:51 51°13.917 2°55.602 183.2 3.2 355 -999
2007-09-27 06:42:56 51°13.922 2°55.601 184.4 3.1 355 -999
2007-09-27 06:43:01 51°13.926 2°55.601 185.8 3 357 10
2007-09-27 06:43:05 51°13.929 2°55.601 187.3 2.8 357 9.9
2007-09-27 06:43:10 51°13.933 2°55.6 188.6 2.7 357 9.8
2007-09-27 06:43:15 51°13.936 2°55.6 190.2 2.6 -999 9.9
2007-09-27 06:43:21 51°13.941 2°55.601 192 2.5 1 9.8
2007-09-27 06:43:25 51°13.943 2°55.601 194.1 2.4 4 9.7
2007-09-27 06:43:30 51°13.947 2°55.601 195.5 2.4 4 9.6
2007-09-27 06:43:35 51°13.95 2°55.602 197.5 2.3 9 10.2
2007-09-27 06:43:41 51°13.953 2°55.603 199.5 2.2 9 9.8
2007-09-27 06:43:45 51°13.956 2°55.604 201.5 2.1 11 10.1
2007-09-27 06:43:50 51°13.958 2°55.605 203.7 2 12 10.3
2007-09-27 06:43:56 51°13.962 2°55.606 205.9 2 16 10.4
2007-09-27 06:44:01 51°13.964 2°55.607 208 1.9 15 10.1
2007-09-27 06:44:05 51°13.966 2°55.608 210 1.8 19 10.3
2007-09-27 06:44:10 51°13.968 2°55.609 212.1 1.8 19 9.9
2007-09-27 06:44:16 51°13.971 2°55.611 214 1.7 20 9.8
2007-09-27 06:44:21 51°13.973 2°55.612 215.7 1.7 20 10
2007-09-27 06:44:25 51°13.975 2°55.613 217.4 1.6 23 10.1
2007-09-27 06:44:30 51°13.977 2°55.615 219 1.6 21 10.1
2007-09-27 06:44:36 51°13.979 2°55.616 220.6 1.5 25 -999
2007-09-27 06:44:41 51°13.981 2°55.617 222.6 1.4 23 10.1
2007-09-27 06:44:45 51°13.982 2°55.618 224.1 1.3 27 10.1
2007-09-27 06:44:50 51°13.983 2°55.62 225.7 1.2 29 10.1
2007-09-27 06:44:55 51°13.985 2°55.621 227 1.1 31 10.1
2007-09-27 06:45:01 51°13.986 2°55.622 228.5 1.1 29 10.2
2007-09-27 06:45:05 51°13.987 2°55.623 230 0.9 34 10.3
2007-09-27 06:45:10 51°13.988 2°55.624 231.5 0.8 32 10.1
2007-09-27 06:45:15 51°13.989 2°55.625 233 0.7 35 10
2007-09-27 06:45:21 51°13.99 2°55.626 234.8 0.6 33 9.9
2007-09-27 06:45:25 51°13.99 2°55.626 236.8 0.5 29 9.9
2007-09-27 06:45:30 51°13.991 2°55.627 238.8 0.3 19 9.9
2007-09-27 06:45:35 51°13.991 2°55.627 241.4 0.3 355 10
2007-09-27 06:45:40 51°13.991 2°55.626 244 0.3 334 9.9
2007-09-27 06:45:45 51°13.992 2°55.626 246.7 0.3 329 10
2007-09-27 06:45:50 51°13.992 2°55.626 249.7 0.3 326 9.9
2007-09-27 06:45:55 51°13.992 2°55.625 252.2 0.3 328 9.9
2007-09-27 06:46:01 51°13.993 2°55.625 254.5 0.3 329 10
2007-09-27 06:46:05 51°13.993 2°55.625 256.4 0.3 328 9.8
2007-09-27 06:46:10 51°13.993 2°55.625 258 0.3 328 9.7
2007-09-27 06:46:16 51°13.993 2°55.624 259.5 0.3 317 9.6
2007-09-27 06:46:21 51°13.994 2°55.623 260.9 0.3 312 9.5
2007-09-27 06:46:25 51°13.994 2°55.623 262.4 0.3 315 9.4
2007-09-27 06:46:30 51°13.994 2°55.623 264.1 0.3 323 9.5
2007-09-27 06:46:36 51°13.995 2°55.622 265.6 0.3 320 9.4
2007-09-27 06:46:41 51°13.995 2°55.622 267.3 0.3 322 9.6
2007-09-27 06:46:45 51°13.995 2°55.622 269 0.3 328 9.6
2007-09-27 06:46:50 51°13.995 2°55.621 270.7 0.3 335 9.5
2007-09-27 06:46:55 51°13.996 2°55.621 272.1 0.3 338 9.7
2007-09-27 06:47:01 51°13.996 2°55.621 273.5 0.3 332 9.7
2007-09-27 06:47:05 51°13.997 2°55.62 274.6 0.3 338 9.8
2007-09-27 06:47:10 51°13.997 2°55.62 275.8 0.3 335 9.9
2007-09-27 06:47:15 51°13.997 2°55.62 276.9 0.2 335 9.8
2007-09-27 06:47:21 51°13.998 2°55.62 277.9 0.3 336 9.7
2007-09-27 06:47:25 51°13.998 2°55.619 278.8 0.3 339 9.7
2007-09-27 06:47:30 51°13.998 2°55.619 279.7 0.3 341 9.9
2007-09-27 06:47:35 51°13.999 2°55.619 280.6 0.3 342 9.7
2007-09-27 06:47:41 51°13.999 2°55.619 281.4 0.3 341 9.8
2007-09-27 06:47:46 51°13.999 2°55.619 282.1 0.3 342 9.7
2007-09-27 06:47:50 51°14 2°55.619 282.9 0.3 344 9.7
2007-09-27 06:47:55 51°14 2°55.619 283.6 0.3 348 9.7
2007-09-27 06:48:01 51°14.001 2°55.618 284.3 0.3 346 9.6
2007-09-27 06:48:05 51°14.001 2°55.618 285 0.3 352 9.6
2007-09-27 06:48:10 51°14.001 2°55.618 285.8 0.3 350 9.6
2007-09-27 06:48:15 51°14.001 2°55.618 286.5 0.3 347 9.6
2007-09-27 06:48:21 51°14.002 2°55.618 287.2 0.3 347 9.6
2007-09-27 06:48:25 51°14.002 2°55.618 287.9 0.2 347 9.6
2007-09-27 06:48:30 51°14.002 2°55.617 288.6 0.2 356 9.5
2007-09-27 06:48:35 51°14.002 2°55.617 289.3 0.2 356 9.6
2007-09-27 06:48:41 51°14.003 2°55.617 289.8 0.2 342 9.5
2007-09-27 06:48:45 51°14.003 2°55.617 290.3 0.2 341 9.4
2007-09-27 06:48:50 51°14.003 2°55.617 290.8 0.2 342 9.4
2007-09-27 06:48:56 51°14.003 2°55.617 291.3 0.2 331 9.4
2007-09-27 06:49:01 51°14.004 2°55.616 291.8 0.2 325 -999
2007-09-27 06:49:05 51°14.004 2°55.616 292.5 0.3 316 9.3
2007-09-27 06:49:10 51°14.004 2°55.616 292.9 0.3 321 9.3
2007-09-27 06:49:15 51°14.004 2°55.615 293.2 0.2 324 9.3
2007-09-27 06:49:21 51°14.005 2°55.615 293.6 0.3 330 9.3
2007-09-27 06:49:25 51°14.005 2°55.615 293.9 0.2 317 9.3
2007-09-27 06:49:30 51°14.005 2°55.615 294.4 0.2 329 9.2
2007-09-27 06:49:35 51°14.005 2°55.614 294.6 0.2 323 9.3
2007-09-27 06:49:41 51°14.006 2°55.614 295 0.2 342 9.2
2007-09-27 06:49:45 51°14.006 2°55.614 295.5 0.2 326 9.2
2007-09-27 06:49:50 51°14.006 2°55.614 295.9 0.2 331 9.2
2007-09-27 06:49:55 51°14.006 2°55.614 296.3 0.2 329 9.2
2007-09-27 06:50:00 51°14.006 2°55.614 296.7 0.1 347 9.2
2007-09-27 06:50:05 51°14.007 2°55.614 297.1 0.1 346 9.1
2007-09-27 06:50:10 51°14.007 2°55.614 297.4 0.1 351 9.2
2007-09-27 06:50:15 51°14.007 2°55.614 297.7 -999 57 9.1
2007-09-27 06:50:21 51°14.007 2°55.614 298.1 0.1 356 9.1
2007-09-27 06:50:25 51°14.007 2°55.614 298.4 -999 278 9.2
2007-09-27 06:50:30 51°14.007 2°55.614 298.8 0.1 335 9.1
2007-09-27 06:50:36 51°14.007 2°55.613 299.1 0.1 323 9.1
2007-09-27 06:50:41 51°14.007 2°55.613 299.3 0.1 318 9.1
2007-09-27 06:50:45 51°14.007 2°55.613 299.6 0.1 325 9.1
2007-09-27 06:50:50 51°14.007 2°55.613 299.8 0.1 325 9.2
2007-09-27 06:50:56 51°14.008 2°55.613 300.2 0.2 329 9.2
2007-09-27 06:51:01 51°14.008 2°55.613 300.4 0.1 353 9.3
2007-09-27 06:51:05 51°14.008 2°55.613 300.6 0.1 29 9.1
2007-09-27 06:51:10 51°14.008 2°55.613 300.6 0.1 62 9.1
2007-09-27 06:51:16 51°14.008 2°55.614 300.7 0.1 96 9.2
2007-09-27 06:51:21 51°14.008 2°55.614 300.7 0.2 108 9.2
2007-09-27 06:51:25 51°14.007 2°55.614 300.7 0.3 117 9.2
2007-09-27 06:51:30 51°14.007 2°55.615 300.7 0.3 122 9.1
2007-09-27 06:51:35 51°14.007 2°55.616 300.5 0.3 119 9.1
2007-09-27 06:51:41 51°14.007 2°55.616 300.4 0.3 110 9
2007-09-27 06:51:45 51°14.007 2°55.617 300.4 0.3 117 9
2007-09-27 06:51:50 51°14.007 2°55.617 300.3 0.3 117 9
2007-09-27 06:51:55 51°14.006 2°55.618 300.2 0.3 116 9.1
2007-09-27 06:52:01 51°14.006 2°55.619 300.2 0.4 117 9.1
2007-09-27 06:52:05 51°14.006 2°55.619 300 0.4 111 9.1
2007-09-27 06:52:10 51°14.006 2°55.62 299.8 0.4 110 9.1
2007-09-27 06:52:15 51°14.006 2°55.621 299.6 0.4 111 9.2
2007-09-27 06:52:21 51°14.005 2°55.622 299.3 0.4 115 9.2
2007-09-27 06:52:25 51°14.005 2°55.623 298.9 0.4 113 9.1
2007-09-27 06:52:30 51°14.005 2°55.624 298.5 0.4 119 9.1
2007-09-27 06:52:35 51°14.005 2°55.624 298 0.4 122 9
2007-09-27 06:52:41 51°14.004 2°55.625 297.6 0.4 118 9.1
2007-09-27 06:52:45 51°14.004 2°55.626 297 0.4 121 9.1
2007-09-27 06:52:50 51°14.004 2°55.627 296.6 0.4 113 9.3
2007-09-27 06:52:56 51°14.004 2°55.628 296.1 0.4 116 9.4
2007-09-27 06:53:01 51°14.004 2°55.629 295.6 0.5 105 9.3
2007-09-27 06:53:05 51°14.003 2°55.63 295.1 0.5 110 9.3
2007-09-27 06:53:10 51°14.003 2°55.631 294.6 0.5 106 9.6
2007-09-27 06:53:15 51°14.003 2°55.632 294 0.4 108 9.6
2007-09-27 06:53:21 51°14.003 2°55.633 293.6 0.4 102 9.5
2007-09-27 06:53:25 51°14.003 2°55.634 293 0.4 104 9.5
2007-09-27 06:53:30 51°14.002 2°55.634 292.5 0.3 105 9.5
2007-09-27 06:53:36 51°14.002 2°55.635 292.1 0.3 108 9.4
2007-09-27 06:53:41 51°14.002 2°55.635 291.7 0.2 95 9.4
2007-09-27 06:53:44 51°14.002 2°55.635 291.5 0.2 82 9.4
2007-09-27 06:53:50 51°14.002 2°55.636 291.5 0.2 78 9.4
2007-09-27 06:53:56 51°14.002 2°55.637 291.7 0.2 73 9.3
2007-09-27 06:54:01 51°14.003 2°55.637 291.9 0.2 11 9.3
2007-09-27 06:54:05 51°14.003 2°55.636 292.5 0.3 313 9.3
2007-09-27 06:54:10 51°14.003 2°55.635 292.8 0.6 311 9.4
2007-09-27 06:54:15 51°14.004 2°55.634 293.8 0.9 303 9.5
2007-09-27 06:54:21 51°14.005 2°55.631 294.3 1.2 303 9.4
2007-09-27 06:54:25 51°14.006 2°55.629 295.3 1.5 302 9.4
2007-09-27 06:54:30 51°14.007 2°55.625 296.1 1.9 302 9.3
2007-09-27 06:54:35 51°14.009 2°55.62 297 2.4 302 9
2007-09-27 06:54:40 51°14.011 2°55.614 298 3 301 8.9
2007-09-27 06:54:45 51°14.014 2°55.608 299 3.6 303 8.9
2007-09-27 06:54:50 51°14.017 2°55.6 299.7 4.1 302 8.9
2007-09-27 06:54:55 51°14.02 2°55.591 300.4 4.6 303 8.9
2007-09-27 06:55:01 51°14.025 2°55.58 300.9 5 302 8.9
2007-09-27 06:55:05 51°14.028 2°55.572 301.5 5.3 304 8.6
2007-09-27 06:55:10 51°14.032 2°55.561 302.6 5.7 303 8.7
2007-09-27 06:55:16 51°14.038 2°55.548 303.2 6.1 304 8.7
2007-09-27 06:55:21 51°14.043 2°55.536 303.7 6.4 303 8.8
2007-09-27 06:55:25 51°14.047 2°55.526 304.1 6.5 303 9
2007-09-27 06:55:30 51°14.052 2°55.514 305.1 6.7 305 9
2007-09-27 06:55:36 51°14.059 2°55.5 306.8 6.9 309 9.2
2007-09-27 06:55:41 51°14.066 2°55.488 310.2 7.1 312 -999
2007-09-27 06:55:46 51°14.074 2°55.478 313.5 7.2 316 -999
2007-09-27 06:55:51 51°14.082 2°55.468 318.9 7.3 321 -999
2007-09-27 06:55:55 51°14.088 2°55.46 323.7 7.5 323 -999
2007-09-27 06:56:01 51°14.099 2°55.448 326.4 7.6 325 -999
2007-09-27 06:56:06 51°14.108 2°55.439 327.8 7.6 325 -999
2007-09-27 06:56:11 51°14.117 2°55.429 329 7.7 326 -999
2007-09-27 06:56:15 51°14.124 2°55.422 330 7.8 328 -999
2007-09-27 06:56:21 51°14.135 2°55.411 330.9 7.8 328 -999
2007-09-27 06:56:26 51°14.144 2°55.401 330.9 8 327 -999
2007-09-27 06:56:31 51°14.154 2°55.391 330 8.1 327 -999
2007-09-27 06:56:36 51°14.164 2°55.381 330 8.3 327 -999
2007-09-27 06:56:41 51°14.173 2°55.371 330.3 8.5 327 -999
2007-09-27 06:56:46 51°14.183 2°55.36 329.5 8.6 325 -999
2007-09-27 06:56:51 51°14.193 2°55.348 328.1 8.9 324 -999
2007-09-27 06:56:56 51°14.204 2°55.336 326.7 9.2 323 9.7
2007-09-27 06:57:01 51°14.214 2°55.323 326.9 9.5 323 9.8
2007-09-27 06:57:05 51°14.223 2°55.312 326.6 9.8 321 9.8
2007-09-27 06:57:10 51°14.234 2°55.298 325.5 10 322 -999
2007-09-27 06:57:15 51°14.244 2°55.284 325.2 10.2 321 9.7
2007-09-27 06:57:21 51°14.257 2°55.266 324.3 10.4 318 10
2007-09-27 06:57:25 51°14.265 2°55.252 321.7 10.5 315 9.5
2007-09-27 06:57:30 51°14.275 2°55.236 318.4 10.5 314 9.1
2007-09-27 06:57:35 51°14.285 2°55.218 316.3 10.5 312 9.3
2007-09-27 06:57:41 51°14.297 2°55.197 315.4 10.7 311 9.5
2007-09-27 06:57:45 51°14.305 2°55.182 314.6 10.8 309 9.4
2007-09-27 06:57:50 51°14.314 2°55.164 313 10.8 308 9.4
2007-09-27 06:57:56 51°14.325 2°55.142 311.9 10.8 309 9.4
2007-09-27 06:58:00 51°14.332 2°55.126 311.4 10.9 306 9.3
2007-09-27 06:58:05 51°14.34 2°55.107 310.2 10.8 306 9.2
2007-09-27 06:58:10 51°14.349 2°55.087 309.3 10.7 304 9.4
2007-09-27 06:58:15 51°14.357 2°55.067 307.8 10.7 303 9.7
2007-09-27 06:58:21 51°14.367 2°55.043 307.3 10.7 303 9.7
2007-09-27 06:58:25 51°14.374 2°55.027 306.2 11 303 9.1
2007-09-27 06:58:30 51°14.382 2°55.006 306.7 11.2 303 9.2
2007-09-27 06:58:35 51°14.39 2°54.984 307.2 11.3 301 9.3
2007-09-27 06:58:41 51°14.397 2°54.956 307.1 11.5 293 9.1
2007-09-27 06:58:45 51°14.401 2°54.937 302.6 11.6 287 9.6
2007-09-27 06:58:50 51°14.404 2°54.912 296.1 11.6 284 9.7
2007-09-27 06:58:55 51°14.407 2°54.886 290.3 11.7 278 9.9
2007-09-27 06:59:01 51°14.407 2°54.854 284.2 12 272 9.8
2007-09-27 06:59:05 51°14.407 2°54.833 280.1 12.3 271 9.6
2007-09-27 06:59:10 51°14.407 2°54.805 276.2 12.6 269 9.6
2007-09-27 06:59:15 51°14.407 2°54.777 274.3 12.6 270 9.5
2007-09-27 06:59:21 51°14.407 2°54.743 274.4 12.6 270 10
2007-09-27 06:59:26 51°14.408 2°54.715 275.3 12.8 271 9.7
2007-09-27 06:59:30 51°14.407 2°54.692 274.5 12.8 268 9.4
2007-09-27 06:59:35 51°14.407 2°54.663 275.6 13 269 9.7
2007-09-27 06:59:40 51°14.405 2°54.634 274.3 13.2 267 9.3
2007-09-27 06:59:45 51°14.403 2°54.606 272.4 13 263 9
2007-09-27 06:59:50 51°14.4 2°54.576 269.7 13.2 259 9.5
2007-09-27 06:59:56 51°14.395 2°54.541 265.4 13.5 260 9.1
2007-09-27 07:00:01 51°14.39 2°54.513 262.2 13.5 254 8.8
2007-09-27 07:00:05 51°14.386 2°54.489 260.5 13.5 255 8.4
2007-09-27 07:00:10 51°14.378 2°54.462 258.7 13.6 247 8.4
2007-09-27 07:00:15 51°14.371 2°54.434 255.5 13.6 248 8.6
2007-09-27 07:00:20 51°14.36 2°54.409 251.2 13.6 235 8.4
2007-09-27 07:00:25 51°14.352 2°54.382 244 13.6 245 8.5
2007-09-27 07:00:29 51°14.343 2°54.363 243 13.6 235 8.4
2007-09-27 07:00:34 51°14.334 2°54.336 239 13.9 242 8.2
2007-09-27 07:00:39 51°14.324 2°54.31 241 13.9 241 8.5
2007-09-27 07:00:44 51°14.314 2°54.284 240.9 13.6 240 8.4
2007-09-27 07:00:49 51°14.306 2°54.257 240.9 13.6 241 8.3
2007-09-27 07:00:53 51°14.298 2°54.236 241.6 13.7 240 8.1
2007-09-27 07:00:58 51°14.288 2°54.21 241.7 13.9 241 8.2
2007-09-27 07:01:03 51°14.278 2°54.184 242.4 13.7 242 8.1
2007-09-27 07:01:08 51°14.269 2°54.156 242 13.9 240 7.8
2007-09-27 07:01:13 51°14.259 2°54.131 241.5 14 239 7.9
2007-09-27 07:01:17 51°14.251 2°54.109 241.6 13.9 240 7.9
2007-09-27 07:01:22 51°14.239 2°54.085 240.3 13.7 234 7.8
2007-09-27 07:01:27 51°14.231 2°54.057 238.8 13.9 242 7.6
2007-09-27 07:01:32 51°14.22 2°54.032 239.4 13.7 237 7.7
2007-09-27 07:01:37 51°14.209 2°54.007 238.9 14 235 7.8
2007-09-27 07:01:42 51°14.201 2°53.98 242.5 13.7 242 7.5
2007-09-27 07:01:47 51°14.191 2°53.953 241.6 13.9 239 7.4
2007-09-27 07:01:52 51°14.182 2°53.926 241.5 14.1 241 7.7
2007-09-27 07:01:57 51°14.17 2°53.901 242.3 14 236 7.7
2007-09-27 07:02:02 51°14.162 2°53.873 241.5 13.8 242 8.1
2007-09-27 07:02:07 51°14.151 2°53.848 239.8 14 236 7.9
2007-09-27 07:02:12 51°14.142 2°53.82 241.5 13.9 242 8.1
2007-09-27 07:02:16 51°14.133 2°53.8 241.3 14 236 7.9
2007-09-27 07:02:22 51°14.122 2°53.767 240.3 14.1 242 8.2
2007-09-27 07:02:27 51°14.111 2°53.742 242.4 13.7 237 8
2007-09-27 07:02:32 51°14.101 2°53.715 238.7 14.3 238 7.9
2007-09-27 07:02:37 51°14.091 2°53.688 241.6 14.2 241 8
2007-09-27 07:02:42 51°14.081 2°53.661 242.3 14 238 8.1
2007-09-27 07:02:47 51°14.072 2°53.634 241.5 13.9 241 8.2
2007-09-27 07:02:52 51°14.062 2°53.607 242.4 14 241 8.1
2007-09-27 07:02:57 51°14.053 2°53.58 243.1 14 242 8
2007-09-27 07:03:02 51°14.044 2°53.553 243.9 14 241 7.8
2007-09-27 07:03:07 51°14.035 2°53.525 242.9 14.4 240 8
2007-09-27 07:03:12 51°14.025 2°53.498 245.8 13.8 243 8
2007-09-27 07:03:17 51°14.017 2°53.47 242.9 14.1 242 8.1
2007-09-27 07:03:22 51°14.007 2°53.443 245.7 14.1 242 8
2007-09-27 07:03:27 51°13.999 2°53.414 245.3 14.2 244 8.2
2007-09-27 07:03:32 51°13.989 2°53.387 244.5 14 241 8.3
2007-09-27 07:03:37 51°13.98 2°53.359 243.9 14.2 242 8.4
2007-09-27 07:03:42 51°13.97 2°53.333 243.7 14 241 8.3
2007-09-27 07:03:47 51°13.96 2°53.305 241.8 14.2 237 8.3
2007-09-27 07:03:52 51°13.95 2°53.278 243.8 14.1 240 8.4
2007-09-27 07:03:57 51°13.94 2°53.251 240.2 14.4 238 8.4
2007-09-27 07:04:02 51°13.93 2°53.224 240.8 14.3 240 8.6
2007-09-27 07:04:07 51°13.919 2°53.197 242.4 14.3 238 8.4
2007-09-27 07:04:12 51°13.911 2°53.169 240.6 14.3 243 8.6
2007-09-27 07:04:17 51°13.898 2°53.144 241.8 14.5 234 8.2
2007-09-27 07:04:22 51°13.891 2°53.114 241.7 14.3 247 8.4
2007-09-27 07:04:27 51°13.879 2°53.089 243.7 14.5 233 8.2
2007-09-27 07:04:32 51°13.871 2°53.059 240.1 14.6 243 8.4
2007-09-27 07:04:37 51°13.86 2°53.034 245.2 13.8 238 8.4
2007-09-27 07:04:42 51°13.85 2°53.006 240.2 14.5 238 8.5
2007-09-27 07:04:47 51°13.84 2°52.979 242.4 14.4 242 8.5
2007-09-27 07:04:52 51°13.83 2°52.951 241.9 14.3 242 8.7
2007-09-27 07:04:57 51°13.82 2°52.924 243.1 14.3 241 8.8
2007-09-27 07:05:02 51°13.81 2°52.896 242.3 14.7 240 8.8
2007-09-27 07:05:07 51°13.801 2°52.868 243 14.5 244 8.9
2007-09-27 07:05:12 51°13.791 2°52.841 244.1 14.2 240 9
2007-09-27 07:05:17 51°13.782 2°52.812 240.9 14.8 241 8.8
2007-09-27 07:05:22 51°13.774 2°52.783 246 14.4 246 8.8
2007-09-27 07:05:27 51°13.764 2°52.756 245.8 14.2 240 8.7
2007-09-27 07:05:32 51°13.754 2°52.728 243 14.6 241 8.6
2007-09-27 07:05:37 51°13.745 2°52.7 245.2 14.3 244 8.8
2007-09-27 07:05:42 51°13.734 2°52.673 242.7 14.3 238 8.6
2007-09-27 07:05:47 51°13.725 2°52.644 241.6 14.4 242 8.8
2007-09-27 07:05:52 51°13.713 2°52.617 241.7 14.7 237 8.8
2007-09-27 07:05:57 51°13.705 2°52.589 242.6 14.4 244 8.7
2007-09-27 07:06:02 51°13.694 2°52.562 243.2 14.3 238 8.9
2007-09-27 07:06:07 51°13.685 2°52.534 241 14.6 242 8.7
2007-09-27 07:06:12 51°13.675 2°52.506 243.4 14.4 242 8.9
2007-09-27 07:06:17 51°13.664 2°52.479 241.6 14.3 237 9
2007-09-27 07:06:22 51°13.654 2°52.452 240.9 14.3 239 8.5
2007-09-27 07:06:27 51°13.645 2°52.424 241.1 14.4 240 8.7
2007-09-27 07:06:32 51°13.633 2°52.398 241.7 14.4 237 8.8
2007-09-27 07:06:37 51°13.623 2°52.371 239.5 14.5 239 8.7
2007-09-27 07:06:42 51°13.612 2°52.344 240.1 14.5 237 8.9
2007-09-27 07:06:47 51°13.603 2°52.316 240.2 14.4 240 9
2007-09-27 07:06:52 51°13.592 2°52.289 240.6 14.4 238 8.9
2007-09-27 07:06:57 51°13.583 2°52.261 240.6 14.4 242 9.1
2007-09-27 07:07:02 51°13.571 2°52.235 241.9 14.4 236 9.2
2007-09-27 07:07:07 51°13.562 2°52.207 242 14.4 243 9.1
2007-09-27 07:07:12 51°13.551 2°52.179 241.5 14.6 239 9
2007-09-27 07:07:17 51°13.542 2°52.15 241.3 14.6 241 9.3
2007-09-27 07:07:22 51°13.531 2°52.125 244.3 14.3 237 9
2007-09-27 07:07:27 51°13.522 2°52.095 240.9 14.7 243 8.8
2007-09-27 07:07:32 51°13.513 2°52.067 245.3 14.3 244 9.1
2007-09-27 07:07:37 51°13.502 2°52.039 243.8 14.6 238 9.3
2007-09-27 07:07:42 51°13.494 2°52.011 244 14.5 245 9.1
2007-09-27 07:07:47 51°13.484 2°51.983 244.7 14.5 238 9.2
2007-09-27 07:07:52 51°13.474 2°51.956 244 14.2 240 9.3
2007-09-27 07:07:57 51°13.464 2°51.928 242 14.3 240 9.5
2007-09-27 07:08:02 51°13.453 2°51.902 241.3 14.4 237 9.1
2007-09-27 07:08:07 51°13.444 2°51.872 240.3 14.9 243 9.2
2007-09-27 07:08:12 51°13.434 2°51.845 243.8 14.3 239 9.2
2007-09-27 07:08:17 51°13.425 2°51.817 242.1 14.1 242 9.4
2007-09-27 07:08:22 51°13.413 2°51.79 242 14.5 238 9.1
2007-09-27 07:08:27 51°13.404 2°51.761 242.2 14.6 242 9.3
2007-09-27 07:08:32 51°13.392 2°51.735 243.3 14.6 237 8.7
2007-09-27 07:08:37 51°13.384 2°51.704 240.7 14.9 245 9
2007-09-27 07:08:42 51°13.374 2°51.678 244.5 14.1 240 9.3
2007-09-27 07:08:47 51°13.364 2°51.651 242.4 14.2 239 9.1
2007-09-27 07:08:52 51°13.355 2°51.622 241.3 14.4 243 9.3
2007-09-27 07:08:57 51°13.343 2°51.596 241.9 14.6 237 9.4
2007-09-27 07:09:02 51°13.334 2°51.566 240.9 14.9 241 9.5
2007-09-27 07:09:07 51°13.324 2°51.539 245 14.5 245 9.2
2007-09-27 07:09:12 51°13.314 2°51.511 241.2 14.5 239 9.1
2007-09-27 07:09:17 51°13.303 2°51.483 241.5 14.8 240 9.2
2007-09-27 07:09:22 51°13.293 2°51.455 240.9 14.8 240 9.5
2007-09-27 07:09:27 51°13.283 2°51.429 242.7 13.9 240 9.3
2007-09-27 07:09:32 51°13.271 2°51.402 238.5 14.7 237 9.1
2007-09-27 07:09:37 51°13.263 2°51.372 242.7 14.6 247 9.1
2007-09-27 07:09:42 51°13.252 2°51.345 243 14.9 236 9
2007-09-27 07:09:47 51°13.243 2°51.315 242.4 15 244 9.2
2007-09-27 07:09:52 51°13.232 2°51.288 244.5 14.6 238 9.3
2007-09-27 07:09:57 51°13.223 2°51.26 242.3 14.4 243 9.5
2007-09-27 07:10:02 51°13.212 2°51.234 242.7 14.4 237 9.3
2007-09-27 07:10:07 51°13.202 2°51.204 239.7 14.7 241 9.6
2007-09-27 07:10:12 51°13.192 2°51.178 243.6 14.1 241 9.4
2007-09-27 07:10:17 51°13.181 2°51.15 239.9 14.8 237 9
2007-09-27 07:10:22 51°13.173 2°51.12 243.9 14.7 245 9.3
2007-09-27 07:10:27 51°13.163 2°51.093 245.8 14.5 238 9.3
2007-09-27 07:10:32 51°13.153 2°51.064 241.8 14.9 240 9.4
2007-09-27 07:10:37 51°13.143 2°51.036 246 14.3 242 9.2
2007-09-27 07:10:42 51°13.132 2°51.01 242.4 14.4 235 9.3
2007-09-27 07:10:47 51°13.123 2°50.981 240.2 14.7 245 8.9
2007-09-27 07:10:52 51°13.113 2°50.953 244 14.6 240 9.2
2007-09-27 07:10:57 51°13.103 2°50.925 242.9 14.5 240 9.5
2007-09-27 07:11:02 51°13.093 2°50.897 243.3 14.8 240 9.6
2007-09-27 07:11:07 51°13.083 2°50.869 242.5 14.8 240 9.5
2007-09-27 07:11:12 51°13.073 2°50.841 243.2 14.3 240 9.6
2007-09-27 07:11:17 51°13.062 2°50.814 239.5 14.6 238 9.7
2007-09-27 07:11:22 51°13.053 2°50.786 242.6 14.5 242 9.6
2007-09-27 07:11:27 51°13.043 2°50.757 243.3 14.6 241 9.6
2007-09-27 07:11:32 51°13.033 2°50.728 242.2 15.1 241 9.5
2007-09-27 07:11:37 51°13.023 2°50.7 245.5 14.4 242 9.5
2007-09-27 07:11:42 51°13.013 2°50.672 242.6 14.8 239 9.2
2007-09-27 07:11:47 51°13.005 2°50.642 244.3 14.7 246 9.4
2007-09-27 07:11:52 51°12.993 2°50.616 243.6 14.6 236 9.3
2007-09-27 07:11:57 51°12.984 2°50.586 241.7 14.9 243 9.1
2007-09-27 07:12:02 51°12.974 2°50.558 244.7 14.7 242 9.5
2007-09-27 07:12:07 51°12.963 2°50.531 242.5 14.4 238 9.6
2007-09-27 07:12:12 51°12.953 2°50.502 241.4 14.8 240 9.7
2007-09-27 07:12:17 51°12.944 2°50.475 243.1 14.4 242 9.7
2007-09-27 07:12:22 51°12.933 2°50.447 240.9 14.6 237 9.5
2007-09-27 07:12:27 51°12.924 2°50.417 242.5 14.7 244 9.6
2007-09-27 07:12:32 51°12.913 2°50.39 243.7 14.6 238 9.7
2007-09-27 07:12:37 51°12.903 2°50.362 241.2 14.8 239 9.7
2007-09-27 07:12:42 51°12.894 2°50.334 242.8 14.3 245 9.6
2007-09-27 07:12:47 51°12.881 2°50.307 240.6 15 233 9.3
2007-09-27 07:12:52 51°12.873 2°50.276 240.5 15.2 245 9.6
2007-09-27 07:12:57 51°12.861 2°50.251 245.3 14.2 235 9.3
2007-09-27 07:13:02 51°12.852 2°50.222 240.9 14.7 241 8.9
2007-09-27 07:13:07 51°12.841 2°50.193 241.2 14.9 240 9.2
2007-09-27 07:13:12 51°12.831 2°50.167 242.8 14.4 238 9.4
2007-09-27 07:13:17 51°12.822 2°50.139 241.5 14.2 242 9.5
2007-09-27 07:13:22 51°12.81 2°50.112 240.8 14.6 235 9.5
2007-09-27 07:13:27 51°12.801 2°50.083 242.9 14.6 243 9.8
2007-09-27 07:13:32 51°12.788 2°50.058 241.5 14.6 233 9.7
2007-09-27 07:13:37 51°12.779 2°50.028 239.1 14.9 242 9.7
2007-09-27 07:13:42 51°12.768 2°50.001 242.3 14.7 237 10
2007-09-27 07:13:47 51°12.757 2°49.974 240.2 14.6 238 9.9
2007-09-27 07:13:52 51°12.747 2°49.946 240.3 14.7 239 9.9
2007-09-27 07:13:57 51°12.736 2°49.919 241.9 14.3 239 9.7
2007-09-27 07:14:02 51°12.725 2°49.892 238.9 14.8 235 9.6
2007-09-27 07:14:07 51°12.716 2°49.863 240.1 14.8 244 9.6
2007-09-27 07:14:12 51°12.705 2°49.836 242.6 14.3 237 9.8
2007-09-27 07:14:17 51°12.695 2°49.809 241.2 14.4 238 9.5
2007-09-27 07:14:22 51°12.684 2°49.78 239.6 15 239 9.5
2007-09-27 07:14:27 51°12.675 2°49.753 244.5 14.4 242 9.6
2007-09-27 07:14:32 51°12.661 2°49.727 238 15 230 9.6
2007-09-27 07:14:37 51°12.652 2°49.699 238.8 14.6 242 9.7
2007-09-27 07:14:42 51°12.641 2°49.674 240.7 14 235 9.7
2007-09-27 07:14:47 51°12.629 2°49.646 237.3 14.8 235 9.6
2007-09-27 07:14:52 51°12.62 2°49.617 240.2 14.8 243 9.6
2007-09-27 07:14:57 51°12.608 2°49.592 241.5 14.3 235 9.5
2007-09-27 07:15:02 51°12.598 2°49.564 237.9 14.6 238 9.8
2007-09-27 07:15:07 51°12.587 2°49.537 241 14.4 238 9.9
2007-09-27 07:15:12 51°12.575 2°49.509 237.3 14.9 236 9.8
2007-09-27 07:15:17 51°12.565 2°49.481 240.4 15 241 9.7
2007-09-27 07:15:22 51°12.555 2°49.453 241.5 14.8 238 10
2007-09-27 07:15:27 51°12.543 2°49.426 242.5 14.6 241 9.6
2007-09-27 07:15:32 51°12.536 2°49.396 240.8 14.7 245 9.7
2007-09-27 07:15:37 51°12.523 2°49.37 243.3 14.7 235 9.8
2007-09-27 07:15:42 51°12.515 2°49.34 242.1 14.7 245 9.6
2007-09-27 07:15:47 51°12.504 2°49.314 244.6 14.5 238 9.4
2007-09-27 07:15:52 51°12.494 2°49.286 241.8 14.7 240 9.6
2007-09-27 07:15:57 51°12.483 2°49.257 241.2 15 240 9.5
2007-09-27 07:16:02 51°12.474 2°49.228 244 14.7 242 9.7
2007-09-27 07:16:07 51°12.463 2°49.202 243.8 14.4 235 9.3
2007-09-27 07:16:12 51°12.453 2°49.173 240.4 14.9 242 9.4
2007-09-27 07:16:17 51°12.442 2°49.145 242.1 14.9 238 9.4
2007-09-27 07:16:22 51°12.434 2°49.117 243.7 14.4 243 9.5
2007-09-27 07:16:27 51°12.423 2°49.09 242.4 14.4 239 9.2
2007-09-27 07:16:32 51°12.412 2°49.061 240.6 15 240 9.3
2007-09-27 07:16:37 51°12.403 2°49.033 245.4 14.4 243 9.6
2007-09-27 07:16:42 51°12.393 2°49.006 242.3 14.2 239 9.6
2007-09-27 07:16:47 51°12.383 2°48.977 241.8 14.7 241 9.6
2007-09-27 07:16:52 51°12.373 2°48.949 244.2 14.8 241 9.8
2007-09-27 07:16:57 51°12.363 2°48.921 244.6 14.4 240 9.8
2007-09-27 07:17:02 51°12.353 2°48.893 241.8 14.8 241 9.8
2007-09-27 07:17:07 51°12.344 2°48.865 244.4 14.6 241 9.7
2007-09-27 07:17:12 51°12.333 2°48.837 242.6 14.8 239 9.3
2007-09-27 07:17:17 51°12.324 2°48.807 243.7 14.9 243 9.5
2007-09-27 07:17:22 51°12.313 2°48.781 246.7 14.4 239 9.4
2007-09-27 07:17:27 51°12.304 2°48.752 241.1 14.7 241 9.5
2007-09-27 07:17:32 51°12.293 2°48.724 245.1 14.6 241 9.5
2007-09-27 07:17:37 51°12.284 2°48.695 243.7 14.6 242 9.6
2007-09-27 07:17:42 51°12.274 2°48.668 243.4 14.6 239 9.8
2007-09-27 07:17:47 51°12.264 2°48.639 243.6 14.6 240 9.9
2007-09-27 07:17:52 51°12.255 2°48.612 243.4 14.1 243 10
2007-09-27 07:17:57 51°12.242 2°48.586 240.1 14.6 233 9.6
2007-09-27 07:18:02 51°12.234 2°48.556 239.9 14.8 247 9.5
2007-09-27 07:18:07 51°12.223 2°48.53 243.4 14.5 238 9.7
2007-09-27 07:18:12 51°12.213 2°48.502 241.4 14.3 240 9.7
2007-09-27 07:18:17 51°12.204 2°48.475 243.1 14.3 242 9.5
2007-09-27 07:18:22 51°12.194 2°48.446 243.1 14.7 241 9.4
2007-09-27 07:18:27 51°12.187 2°48.416 247.5 14.4 249 9.6
2007-09-27 07:18:32 51°12.177 2°48.389 246.8 14.4 243 9.7
2007-09-27 07:18:37 51°12.169 2°48.36 247.1 14.4 246 9.6
2007-09-27 07:18:42 51°12.161 2°48.33 247.8 14.7 246 9.7
2007-09-27 07:18:47 51°12.155 2°48.3 251.8 14.5 253 9.8
2007-09-27 07:18:52 51°12.149 2°48.271 255.4 14 252 9.9
2007-09-27 07:18:57 51°12.142 2°48.24 254.4 14.5 251 9.4
2007-09-27 07:19:02 51°12.138 2°48.21 258.6 14.2 257 9.7
2007-09-27 07:19:07 51°12.131 2°48.179 258.6 14.4 251 9.7
2007-09-27 07:19:12 51°12.128 2°48.148 259.1 14.4 260 9.7
2007-09-27 07:19:17 51°12.121 2°48.119 260.5 14.3 252 9.8
2007-09-27 07:19:22 51°12.117 2°48.088 259.8 14.1 257 9.8
2007-09-27 07:19:27 51°12.111 2°48.057 259 14.6 252 9.9
2007-09-27 07:19:32 51°12.106 2°48.026 258.9 14.3 257 10.2
2007-09-27 07:19:37 51°12.099 2°47.996 257.6 14.7 249 10.1
2007-09-27 07:19:42 51°12.095 2°47.964 258.6 14.6 259 10.2
2007-09-27 07:19:47 51°12.087 2°47.935 259.6 14.5 249 9.9
2007-09-27 07:19:52 51°12.082 2°47.903 257 14.6 256 10.2
2007-09-27 07:19:57 51°12.076 2°47.873 257.7 14.7 252 10.3
2007-09-27 07:20:02 51°12.071 2°47.842 258.5 14.5 257 10.3
2007-09-27 07:20:07 51°12.064 2°47.811 258.6 14.6 252 10.5
2007-09-27 07:20:12 51°12.061 2°47.78 257.3 14.4 258 10.6
2007-09-27 07:20:17 51°12.053 2°47.749 259.2 14.7 251 10.5
2007-09-27 07:20:22 51°12.049 2°47.718 258.5 14.6 257 10.5
2007-09-27 07:20:27 51°12.041 2°47.688 256.7 14.5 249 10.4
2007-09-27 07:20:32 51°12.037 2°47.657 256.7 14.5 257 10.6
2007-09-27 07:20:37 51°12.029 2°47.627 257.6 14.6 250 10.5
2007-09-27 07:20:42 51°12.025 2°47.595 256.2 14.7 256 10.9
2007-09-27 07:20:47 51°12.018 2°47.565 258.3 14.5 253 10.6
2007-09-27 07:20:52 51°12.013 2°47.534 257.9 14.5 254 10.6
2007-09-27 07:20:57 51°12.008 2°47.502 257.4 14.7 254 10.8
2007-09-27 07:21:02 51°12.001 2°47.472 259.4 14.5 253 10.9
2007-09-27 07:21:07 51°11.997 2°47.441 258 14.5 254 11
2007-09-27 07:21:12 51°11.991 2°47.409 257.6 14.7 254 11
2007-09-27 07:21:17 51°11.986 2°47.378 259.5 14.6 257 11.2
2007-09-27 07:21:22 51°11.98 2°47.348 258.5 14.5 252 10.8
2007-09-27 07:21:27 51°11.975 2°47.316 258.3 14.7 256 11
2007-09-27 07:21:32 51°11.97 2°47.285 259.2 14.5 255 11
2007-09-27 07:21:37 51°11.964 2°47.255 259.2 14.3 254 11.2
2007-09-27 07:21:42 51°11.96 2°47.223 259.6 14.6 256 11.1
2007-09-27 07:21:47 51°11.954 2°47.191 259.5 15.1 255 11
2007-09-27 07:21:52 51°11.95 2°47.16 261.1 14.5 259 11.3
2007-09-27 07:21:57 51°11.943 2°47.13 261.3 14.4 250 11
2007-09-27 07:22:02 51°11.941 2°47.097 260.5 14.7 262 11.2
2007-09-27 07:22:07 51°11.935 2°47.067 264.6 14.7 255 11.2
2007-09-27 07:22:12 51°11.932 2°47.036 262.7 14.4 259 10.9
2007-09-27 07:22:17 51°11.928 2°47.004 262.7 14.5 259 11.1
2007-09-27 07:22:22 51°11.923 2°46.972 263 14.7 258 11.5
2007-09-27 07:22:27 51°11.92 2°46.941 262.6 14.7 259 11.4
2007-09-27 07:22:32 51°11.915 2°46.91 264.8 14.5 257 11.3
2007-09-27 07:22:37 51°11.911 2°46.878 262.8 14.5 257 11.3
2007-09-27 07:22:41 51°11.908 2°46.853 263.3 14.7 258 11.5
2007-09-27 07:22:46 51°11.904 2°46.821 262.7 14.4 259 11.6
2007-09-27 07:22:52 51°11.898 2°46.784 263 14.6 257 11.4
2007-09-27 07:22:56 51°11.895 2°46.758 262 14.5 261 11.6
2007-09-27 07:23:01 51°11.891 2°46.727 264.9 14.4 257 11.7
2007-09-27 07:23:06 51°11.887 2°46.695 262.7 14.6 258 11.9
2007-09-27 07:23:12 51°11.882 2°46.658 264.1 14.2 259 12.2
2007-09-27 07:23:17 51°11.877 2°46.627 261.4 14.8 254 11.7
2007-09-27 07:23:22 51°11.875 2°46.595 263.1 14.7 263 12
2007-09-27 07:23:27 51°11.868 2°46.565 262.3 14.5 253 11.8
2007-09-27 07:23:32 51°11.865 2°46.533 261.3 14.5 262 12.2
2007-09-27 07:23:37 51°11.859 2°46.503 262 14.5 254 12.2
2007-09-27 07:23:42 51°11.855 2°46.471 262.7 14.8 257 12
2007-09-27 07:23:47 51°11.852 2°46.44 262.8 14.3 261 12
2007-09-27 07:23:52 51°11.847 2°46.409 262.7 14.7 255 12.1
2007-09-27 07:23:57 51°11.843 2°46.378 262.7 14.5 259 12.2
2007-09-27 07:24:02 51°11.837 2°46.348 264.6 14.2 254 11.5
2007-09-27 07:24:07 51°11.834 2°46.315 258.3 14.8 258 11.9
2007-09-27 07:24:12 51°11.828 2°46.285 262.8 14.4 256 11.9
2007-09-27 07:24:17 51°11.824 2°46.254 261.1 14.4 257 11.9
2007-09-27 07:24:22 51°11.821 2°46.223 262.6 14.3 260 12.1
2007-09-27 07:24:27 51°11.816 2°46.191 262.4 14.5 257 12.1
2007-09-27 07:24:32 51°11.812 2°46.159 262 14.8 258 12.3
2007-09-27 07:24:37 51°11.808 2°46.128 264.4 14.6 259 12.4
2007-09-27 07:24:42 51°11.804 2°46.096 262.5 14.4 258 12.4
2007-09-27 07:24:47 51°11.799 2°46.065 261.8 14.8 256 12
2007-09-27 07:24:52 51°11.796 2°46.033 263.4 14.6 259 12.1
2007-09-27 07:24:57 51°11.791 2°46.002 263.1 14.5 256 12
2007-09-27 07:25:02 51°11.787 2°45.971 262.3 14.5 259 11.7
2007-09-27 07:25:07 51°11.784 2°45.939 262.8 14.4 260 11.7
2007-09-27 07:25:12 51°11.778 2°45.908 261.8 14.6 257 11.7
2007-09-27 07:25:17 51°11.774 2°45.876 261.3 14.7 260 11.8
2007-09-27 07:25:22 51°11.771 2°45.844 262.2 14.6 259 12
2007-09-27 07:25:27 51°11.765 2°45.813 264 14.3 260 11.9
2007-09-27 07:25:32 51°11.763 2°45.782 262.7 14.4 262 11.6
2007-09-27 07:25:37 51°11.758 2°45.75 263.4 14.8 257 12.3
2007-09-27 07:25:42 51°11.754 2°45.719 263.4 14.6 259 12.1
2007-09-27 07:25:47 51°11.749 2°45.688 262.7 14.5 256 11.8
2007-09-27 07:25:52 51°11.746 2°45.656 262.2 14.4 261 11.7
2007-09-27 07:25:57 51°11.742 2°45.625 262.5 14.5 257 12.4
2007-09-27 07:26:02 51°11.738 2°45.594 264 14.2 259 12.2
2007-09-27 07:26:07 51°11.734 2°45.562 261.9 14.5 256 12.2
2007-09-27 07:26:12 51°11.73 2°45.531 264.4 14.4 262 12.2
2007-09-27 07:26:17 51°11.726 2°45.5 262.7 14.4 257 12
2007-09-27 07:26:22 51°11.722 2°45.468 262.2 14.6 259 11.8
2007-09-27 07:26:27 51°11.717 2°45.437 262.7 14.5 257 12.4
2007-09-27 07:26:32 51°11.713 2°45.406 261.6 14.4 258 12.3
2007-09-27 07:26:37 51°11.709 2°45.375 262.7 14.5 258 12.1
2007-09-27 07:26:42 51°11.705 2°45.344 263.3 14.2 260 12.3
2007-09-27 07:26:47 51°11.7 2°45.312 262.5 14.7 255 12.1
2007-09-27 07:26:52 51°11.697 2°45.281 262 14.6 261 12.2
2007-09-27 07:26:57 51°11.693 2°45.25 264.2 14.3 257 12.1
2007-09-27 07:27:02 51°11.689 2°45.218 260.6 14.4 259 11.9
2007-09-27 07:27:07 51°11.686 2°45.186 263.8 14.7 261 12.3
2007-09-27 07:27:12 51°11.681 2°45.155 263.4 14.6 257 12
2007-09-27 07:27:17 51°11.678 2°45.124 263.4 14.2 262 11.9
2007-09-27 07:27:22 51°11.673 2°45.093 261.5 14.3 255 12.1
2007-09-27 07:27:27 51°11.67 2°45.062 261.7 14.4 258 12
2007-09-27 07:27:32 51°11.666 2°45.03 262.2 14.6 260 11.9
2007-09-27 07:27:37 51°11.661 2°44.999 263 14.6 257 12
2007-09-27 07:27:42 51°11.659 2°44.968 264.5 14 262 12.3
2007-09-27 07:27:47 51°11.652 2°44.937 260.4 14.5 252 12
2007-09-27 07:27:52 51°11.651 2°44.905 261 14.6 264 11.9
2007-09-27 07:27:57 51°11.645 2°44.874 264.9 14.5 256 12
2007-09-27 07:28:02 51°11.642 2°44.843 261.1 14.5 260 12.2
2007-09-27 07:28:07 51°11.637 2°44.812 261.3 14.5 257 11.8
2007-09-27 07:28:12 51°11.633 2°44.78 261 14.4 259 11.7
2007-09-27 07:28:17 51°11.629 2°44.749 262.7 14.2 259 12
2007-09-27 07:28:22 51°11.625 2°44.719 261.2 14.2 257 11.8
2007-09-27 07:28:27 51°11.621 2°44.687 261.7 14.5 258 11.9
2007-09-27 07:28:32 51°11.617 2°44.656 262 14.6 258 12.1
2007-09-27 07:28:37 51°11.613 2°44.625 263.8 14.4 258 11.8
2007-09-27 07:28:42 51°11.61 2°44.595 263.4 13.7 262 11.4
2007-09-27 07:28:47 51°11.606 2°44.563 262.4 14.2 257 11.7
2007-09-27 07:28:52 51°11.604 2°44.531 264.9 14.8 264 11.9
2007-09-27 07:28:57 51°11.601 2°44.5 267.8 14.1 261 12
2007-09-27 07:29:02 51°11.598 2°44.47 265.1 13.9 261 12
2007-09-27 07:29:07 51°11.595 2°44.438 265.7 14.4 262 11.7
2007-09-27 07:29:12 51°11.593 2°44.407 266.2 14.5 264 12
2007-09-27 07:29:16 51°11.589 2°44.382 267.2 14.2 260 11.8
2007-09-27 07:29:22 51°11.586 2°44.346 265.6 14.1 261 12
2007-09-27 07:29:27 51°11.583 2°44.314 264.7 14.4 260 11.6
2007-09-27 07:29:32 51°11.581 2°44.282 266.1 14.4 263 11.7
2007-09-27 07:29:36 51°11.578 2°44.258 266.3 14.4 260 11.9
2007-09-27 07:29:42 51°11.576 2°44.22 266.4 14.4 265 11.5
2007-09-27 07:29:47 51°11.573 2°44.189 267.8 14.1 264 11.6
2007-09-27 07:29:52 51°11.571 2°44.158 267.8 13.7 264 11.7
2007-09-27 07:29:56 51°11.569 2°44.134 267.5 13.8 262 11.4
2007-09-27 07:30:02 51°11.567 2°44.098 267 13.8 265 11.6
2007-09-27 07:30:07 51°11.564 2°44.068 269.2 13.6 263 11.4
2007-09-27 07:30:12 51°11.562 2°44.038 267.8 13.6 265 11.5
2007-09-27 07:30:16 51°11.56 2°44.014 268.5 13.4 263 11.7
2007-09-27 07:30:22 51°11.558 2°43.979 269.8 13.3 264 11.5
2007-09-27 07:30:27 51°11.555 2°43.949 268 13.7 262 11.5
2007-09-27 07:30:32 51°11.553 2°43.919 266.9 13.8 264 11.8
2007-09-27 07:30:36 51°11.552 2°43.896 270.7 13.3 266 11.6
2007-09-27 07:30:42 51°11.549 2°43.861 269.3 13.5 261 11
2007-09-27 07:30:47 51°11.549 2°43.831 269.2 13.2 267 11.2
2007-09-27 07:30:52 51°11.545 2°43.803 269.1 13.1 261 11.3
2007-09-27 07:30:56 51°11.544 2°43.78 267.5 13.4 265 11.6
2007-09-27 07:31:02 51°11.541 2°43.744 270.2 13.5 261 11.1
2007-09-27 07:31:07 51°11.54 2°43.716 268.5 13 267 11.1
2007-09-27 07:31:12 51°11.537 2°43.687 268.5 13 262 11.4
2007-09-27 07:31:16 51°11.535 2°43.664 267.8 13 264 10.8
2007-09-27 07:31:22 51°11.533 2°43.629 267 13.4 262 10.7
2007-09-27 07:31:27 51°11.532 2°43.6 268.8 13.1 266 10.8
2007-09-27 07:31:32 51°11.529 2°43.573 269.4 12.5 262 11
2007-09-27 07:31:36 51°11.528 2°43.551 267.6 12.7 265 11
2007-09-27 07:31:42 51°11.526 2°43.515 268.4 13.4 265 11
2007-09-27 07:31:47 51°11.523 2°43.485 269 13.6 262 11.2
2007-09-27 07:31:52 51°11.522 2°43.457 270.4 12.8 265 11.1
2007-09-27 07:31:56 51°11.52 2°43.435 268.4 12.7 261 10.8
2007-09-27 07:32:02 51°11.518 2°43.4 266.8 13.4 265 10.8
2007-09-27 07:32:07 51°11.516 2°43.37 269 13.2 266 10.7
2007-09-27 07:32:12 51°11.514 2°43.342 270 12.9 264 10.6
2007-09-27 07:32:16 51°11.513 2°43.319 268.4 13.1 264 10.2
2007-09-27 07:32:22 51°11.51 2°43.284 267.8 13.3 263 10.3
2007-09-27 07:32:27 51°11.508 2°43.255 269.2 13 265 10.5
2007-09-27 07:32:32 51°11.506 2°43.227 269.1 12.7 263 10.4
2007-09-27 07:32:36 51°11.504 2°43.204 267.5 13 263 10.5
2007-09-27 07:32:42 51°11.502 2°43.168 268.3 13.6 265 10.4
2007-09-27 07:32:47 51°11.501 2°43.139 269.7 13.4 265 10.5
2007-09-27 07:32:52 51°11.498 2°43.11 271.1 13 264 10.3
2007-09-27 07:32:56 51°11.497 2°43.087 267.4 12.9 264 10.3
2007-09-27 07:33:02 51°11.492 2°43.053 265.3 13.2 257 10.4
2007-09-27 07:33:07 51°11.491 2°43.024 266.2 13.3 266 10.6
2007-09-27 07:33:12 51°11.488 2°42.995 267.1 13.1 261 10.5
2007-09-27 07:33:16 51°11.487 2°42.972 267.6 13 266 10.6
2007-09-27 07:33:22 51°11.484 2°42.938 267.5 13.2 260 10.7
2007-09-27 07:33:27 51°11.483 2°42.909 268.3 13.2 266 10.4
2007-09-27 07:33:32 51°11.479 2°42.88 267.6 13.4 259 10.4
2007-09-27 07:33:36 51°11.479 2°42.857 268.2 13 269 10.4
2007-09-27 07:33:42 51°11.476 2°42.823 269.4 13 261 10.4
2007-09-27 07:33:47 51°11.475 2°42.795 268.7 12.9 265 10.3
2007-09-27 07:33:52 51°11.471 2°42.766 266.2 13.1 258 10.5
2007-09-27 07:33:56 51°11.471 2°42.743 268.1 13 267 9.8
2007-09-27 07:34:02 51°11.468 2°42.709 268.9 13 263 9.8
2007-09-27 07:34:07 51°11.467 2°42.68 269.6 12.9 265 10.3
2007-09-27 07:34:12 51°11.464 2°42.651 269 13.3 261 10
2007-09-27 07:34:17 51°11.463 2°42.622 268.5 13.2 266 10.1
2007-09-27 07:34:22 51°11.46 2°42.593 268.5 13.3 262 10.5
2007-09-27 07:34:27 51°11.459 2°42.564 269.3 13.2 268 10.6
2007-09-27 07:34:32 51°11.456 2°42.535 268.3 13.1 264 10.5
2007-09-27 07:34:37 51°11.455 2°42.505 268.9 13.6 265 10.6
2007-09-27 07:34:42 51°11.453 2°42.476 269.2 13.6 264 10.7
2007-09-27 07:34:47 51°11.45 2°42.447 271.1 13.3 263 10.5
2007-09-27 07:34:52 51°11.448 2°42.419 267.8 13.1 262 10.4
2007-09-27 07:34:57 51°11.445 2°42.39 267.8 13.1 262 10.3
2007-09-27 07:35:02 51°11.445 2°42.361 268.1 13.1 267 10.5
2007-09-27 07:35:07 51°11.442 2°42.332 270.3 13.2 264 10.5
2007-09-27 07:35:12 51°11.441 2°42.303 269.2 13.3 265 10.8
2007-09-27 07:35:17 51°11.437 2°42.274 267.8 13.3 262 10.4
2007-09-27 07:35:22 51°11.436 2°42.245 267.4 13.3 264 10.5
2007-09-27 07:35:27 51°11.432 2°42.215 267.4 13.3 261 10.4
2007-09-27 07:35:32 51°11.431 2°42.186 269.4 13.1 265 10.4
2007-09-27 07:35:37 51°11.428 2°42.158 269 13.2 261 10.4
2007-09-27 07:35:42 51°11.426 2°42.128 269.2 13.3 264 10.5
2007-09-27 07:35:47 51°11.423 2°42.099 267.6 13.3 260 10.7
2007-09-27 07:35:52 51°11.42 2°42.07 267.2 13.3 262 10.6
2007-09-27 07:35:57 51°11.418 2°42.041 266.9 13.3 263 10.5
2007-09-27 07:36:02 51°11.415 2°42.012 267.9 13.4 260 10.7
2007-09-27 07:36:07 51°11.412 2°41.982 267.3 13.6 262 10.5
2007-09-27 07:36:12 51°11.411 2°41.952 267.6 13.4 264 10.6
2007-09-27 07:36:17 51°11.407 2°41.923 268.1 13.5 260 10.4
2007-09-27 07:36:22 51°11.405 2°41.893 267.8 13.4 264 10.7
2007-09-27 07:36:27 51°11.4 2°41.865 265.8 13.5 256 10.5
2007-09-27 07:36:32 51°11.398 2°41.835 264.6 13.6 261 10.6
2007-09-27 07:36:37 51°11.393 2°41.805 264.8 13.7 257 10.8
2007-09-27 07:36:42 51°11.389 2°41.775 262 13.9 257 11.2
2007-09-27 07:36:47 51°11.383 2°41.746 261.2 13.9 254 10.6
2007-09-27 07:36:52 51°11.38 2°41.716 261.7 13.7 259 10.8
2007-09-27 07:36:57 51°11.374 2°41.688 260.4 13.8 252 10.9
2007-09-27 07:37:02 51°11.369 2°41.658 258.7 13.8 256 11.2
2007-09-27 07:37:07 51°11.362 2°41.629 258.9 14 249 10.9
2007-09-27 07:37:12 51°11.358 2°41.6 257.2 13.8 257 10.8
2007-09-27 07:37:16 51°11.352 2°41.578 256.5 13.5 249 11
2007-09-27 07:37:22 51°11.345 2°41.544 255 13.5 252 10.9
2007-09-27 07:37:27 51°11.339 2°41.514 255.8 14 250 11
2007-09-27 07:37:32 51°11.333 2°41.485 256.2 14.1 251 11.3
2007-09-27 07:37:36 51°11.327 2°41.463 253.9 13.8 248 11.4
2007-09-27 07:37:42 51°11.32 2°41.428 253.7 13.6 252 11.4
2007-09-27 07:37:47 51°11.313 2°41.4 254.7 13.7 249 11.2
2007-09-27 07:37:52 51°11.306 2°41.371 254.6 13.9 251 11.2
2007-09-27 07:37:56 51°11.301 2°41.347 255.4 14.2 250 11.4
2007-09-27 07:38:02 51°11.293 2°41.313 253.3 14.1 251 11.4
2007-09-27 07:38:07 51°11.287 2°41.285 255.5 13.7 251 11.4
2007-09-27 07:38:12 51°11.281 2°41.256 255.6 13.7 250 11.6
2007-09-27 07:38:16 51°11.276 2°41.232 256.2 14.1 251 11.5
2007-09-27 07:38:22 51°11.268 2°41.196 256.5 14.5 251 11.7
2007-09-27 07:38:27 51°11.262 2°41.167 255.7 14.1 251 11.7
2007-09-27 07:38:32 51°11.253 2°41.141 255.4 13.7 242 11.8
2007-09-27 07:38:36 51°11.245 2°41.119 248.5 14.1 242 11.7
2007-09-27 07:38:42 51°11.235 2°41.085 246.8 14.1 245 12
2007-09-27 07:38:47 51°11.223 2°41.06 243.4 14.2 235 12
2007-09-27 07:38:52 51°11.215 2°41.033 240.9 13.8 241 12
2007-09-27 07:38:56 51°11.204 2°41.015 238 14.1 229 11.9
2007-09-27 07:39:02 51°11.191 2°40.982 234.6 14.5 240 12
2007-09-27 07:39:07 51°11.179 2°40.959 238.8 13.8 231 12.1
2007-09-27 07:39:12 51°11.167 2°40.935 235.1 13.8 230 11.9
2007-09-27 07:39:17 51°11.155 2°40.91 231.7 14.1 230 12.1
2007-09-27 07:39:22 51°11.142 2°40.887 232.5 14.1 230 11.8
2007-09-27 07:39:27 51°11.129 2°40.862 230 14.5 228 11.8
2007-09-27 07:39:32 51°11.117 2°40.838 231.4 13.8 232 12.2
2007-09-27 07:39:37 51°11.104 2°40.815 232.5 13.8 227 11.9
2007-09-27 07:39:42 51°11.092 2°40.789 230.3 14.7 233 12
2007-09-27 07:39:47 51°11.08 2°40.764 234.4 14.4 233 12.3
2007-09-27 07:39:52 51°11.068 2°40.74 234 14.2 231 12.2
2007-09-27 07:39:57 51°11.057 2°40.714 234.6 14.3 234 12.5
2007-09-27 07:40:02 51°11.043 2°40.691 233.6 14.1 228 12
2007-09-27 07:40:07 51°11.031 2°40.665 230.4 14.5 229 12.2
2007-09-27 07:40:12 51°11.019 2°40.641 232.8 14.2 233 12.3
2007-09-27 07:40:17 51°11.005 2°40.617 232.4 14.5 228 12
2007-09-27 07:40:22 51°10.994 2°40.591 231.3 14.3 234 12.5
2007-09-27 07:40:27 51°10.979 2°40.569 229.3 14.3 224 12.3
2007-09-27 07:40:32 51°10.968 2°40.543 230.3 14.5 233 12.1
2007-09-27 07:40:37 51°10.955 2°40.52 232.6 14.2 227 12.5
2007-09-27 07:40:42 51°10.942 2°40.496 231.8 13.9 230 12.3
2007-09-27 07:40:47 51°10.93 2°40.471 228.7 14.6 234 12.3
2007-09-27 07:40:52 51°10.918 2°40.446 233.6 14.1 234 12.6
2007-09-27 07:40:56 51°10.908 2°40.427 233.7 13.9 231 12.4
2007-09-27 07:41:02 51°10.893 2°40.396 230.8 14.6 233 12.6
2007-09-27 07:41:07 51°10.88 2°40.371 232.9 14.7 231 12.6
2007-09-27 07:41:12 51°10.869 2°40.346 233.4 13.9 234 12.9
2007-09-27 07:41:17 51°10.857 2°40.323 233.2 13.9 230 12.8
2007-09-27 07:41:22 51°10.844 2°40.297 231.6 14.8 231 12.9
2007-09-27 07:41:27 51°10.832 2°40.273 233.5 14.3 234 13
2007-09-27 07:41:32 51°10.818 2°40.25 230.8 14.3 229 13.1
2007-09-27 07:41:37 51°10.808 2°40.224 231.6 13.8 237 13.1
2007-09-27 07:41:42 51°10.796 2°40.202 237.7 13.4 232 12.9
2007-09-27 07:41:47 51°10.783 2°40.176 233.3 14.5 230 13.1
2007-09-27 07:41:52 51°10.77 2°40.152 232.9 14.7 228 12.8
2007-09-27 07:41:57 51°10.758 2°40.127 230.7 14 230 13.3
2007-09-27 07:42:02 51°10.747 2°40.106 234.1 12.9 231 13.3
2007-09-27 07:42:07 51°10.734 2°40.081 232.2 14.1 230 12.7
2007-09-27 07:42:12 51°10.723 2°40.058 232.9 13.7 234 13
2007-09-27 07:42:17 51°10.712 2°40.038 231.5 12 228 13.3
2007-09-27 07:42:22 51°10.703 2°40.02 231.7 10.7 233 13.5
2007-09-27 07:42:27 51°10.694 2°40.001 234.4 10.7 231 13.3
2007-09-27 07:42:32 51°10.686 2°39.984 233.8 9.9 235 13.6
2007-09-27 07:42:36 51°10.68 2°39.972 235.1 9.2 231 13.6
2007-09-27 07:42:42 51°10.672 2°39.952 235.2 8.8 237 13.8
2007-09-27 07:42:47 51°10.665 2°39.938 237.1 8.2 230 13.6
2007-09-27 07:42:52 51°10.66 2°39.923 237.8 8 242 13.6
2007-09-27 07:42:56 51°10.654 2°39.914 237.4 7.4 229 13.9
2007-09-27 07:43:02 51°10.647 2°39.898 238.6 7.1 236 13.6
2007-09-27 07:43:07 51°10.642 2°39.885 238.5 6.7 237 13.7
2007-09-27 07:43:12 51°10.636 2°39.874 237.4 6.6 230 13.9
2007-09-27 07:43:17 51°10.632 2°39.863 238.7 6.3 237 13.6
2007-09-27 07:43:22 51°10.627 2°39.852 237.3 6.2 235 13.6
2007-09-27 07:43:27 51°10.622 2°39.842 236.8 5.8 231 14
2007-09-27 07:43:32 51°10.617 2°39.832 236.4 5.8 232 13.8
2007-09-27 07:43:37 51°10.613 2°39.822 235.3 5.4 238 13.8
2007-09-27 07:43:42 51°10.607 2°39.813 233.9 5.5 225 14.3
2007-09-27 07:43:47 51°10.603 2°39.804 234.7 5.2 234 13.9
2007-09-27 07:43:52 51°10.599 2°39.795 232.5 5.1 240 14.1
2007-09-27 07:43:57 51°10.595 2°39.788 232.8 4.9 230 14
2007-09-27 07:44:02 51°10.591 2°39.78 231 4.8 230 14.1
2007-09-27 07:44:07 51°10.586 2°39.773 230.8 4.6 232 14
2007-09-27 07:44:12 51°10.582 2°39.765 229.6 4.7 228 14.1
2007-09-27 07:44:17 51°10.578 2°39.757 230 4.5 231 14.1
2007-09-27 07:44:22 51°10.574 2°39.749 229.9 4.5 227 14.1
2007-09-27 07:44:27 51°10.57 2°39.742 229 4.4 233 14.2
2007-09-27 07:44:32 51°10.566 2°39.735 229 4.2 225 14.1
2007-09-27 07:44:37 51°10.563 2°39.728 228 4.1 230 14.4
2007-09-27 07:44:42 51°10.559 2°39.721 227.1 4.1 226 14.2
2007-09-27 07:44:47 51°10.556 2°39.714 226.3 4.1 234 14.1
2007-09-27 07:44:52 51°10.551 2°39.708 226.3 4 220 13.9
2007-09-27 07:44:56 51°10.549 2°39.702 225.2 4 237 13.9
2007-09-27 07:45:02 51°10.544 2°39.696 224.8 3.9 216 13.8
2007-09-27 07:45:07 51°10.541 2°39.688 225 4.1 239 13.6
2007-09-27 07:45:12 51°10.537 2°39.682 223.5 4.1 218 13.9
2007-09-27 07:45:17 51°10.533 2°39.674 226.5 4.2 238 13.7
2007-09-27 07:45:22 51°10.53 2°39.668 229.6 4.3 227 13.8
2007-09-27 07:45:27 51°10.526 2°39.66 233.4 4.4 229 13.9
2007-09-27 07:45:32 51°10.523 2°39.651 237.2 4.4 241 14.1
2007-09-27 07:45:36 51°10.519 2°39.645 243.1 4.5 231 14.2
2007-09-27 07:45:42 51°10.516 2°39.635 248.1 4.3 245 13.7
2007-09-27 07:45:47 51°10.514 2°39.626 252 4.1 251 13.8
2007-09-27 07:45:52 51°10.511 2°39.618 256.4 4.1 239 13.9
2007-09-27 07:45:56 51°10.511 2°39.611 259.1 3.8 257 13.6
2007-09-27 07:46:02 51°10.508 2°39.603 260.7 3.9 242 14
2007-09-27 07:46:07 51°10.505 2°39.595 262.4 3.6 247 14.1
2007-09-27 07:46:12 51°10.504 2°39.588 263.6 3.5 249 14.4
2007-09-27 07:46:17 51°10.502 2°39.581 265.3 3.6 245 14.3
2007-09-27 07:46:22 51°10.501 2°39.573 265.6 3.4 252 14
2007-09-27 07:46:27 51°10.498 2°39.566 265.6 3.5 243 14.3
2007-09-27 07:46:32 51°10.496 2°39.56 266.8 3.4 241 14.4
2007-09-27 07:46:36 51°10.495 2°39.554 267.5 3.4 245 14
2007-09-27 07:46:42 51°10.493 2°39.546 266.8 3.1 250 14
2007-09-27 07:46:47 51°10.491 2°39.54 266.2 3.3 242 14.1
2007-09-27 07:46:52 51°10.49 2°39.534 268.2 3 254 14.1
2007-09-27 07:46:56 51°10.487 2°39.528 266.3 3.4 237 14.2
2007-09-27 07:47:02 51°10.486 2°39.522 267.2 2.8 249 14.2
2007-09-27 07:47:07 51°10.484 2°39.516 268.7 2.8 247 14.2
2007-09-27 07:47:12 51°10.483 2°39.509 270 2.9 247 14.3
2007-09-27 07:47:16 51°10.481 2°39.504 270 3.1 246 14.4
2007-09-27 07:47:22 51°10.48 2°39.497 272.1 2.9 255 14.3
2007-09-27 07:47:27 51°10.478 2°39.491 272.9 3 246 14.5
2007-09-27 07:47:32 51°10.477 2°39.485 273.5 2.8 249 14.3
2007-09-27 07:47:36 51°10.475 2°39.481 275.1 2.9 251 14.7
2007-09-27 07:47:42 51°10.473 2°39.474 275.4 3.3 237 14.8
2007-09-27 07:47:47 51°10.472 2°39.468 276.9 2.7 253 14.2
2007-09-27 07:47:52 51°10.471 2°39.463 278.3 2.5 248 13.7
2007-09-27 07:47:57 51°10.47 2°39.457 278.4 2.6 253 13.6
2007-09-27 07:48:02 51°10.468 2°39.452 278.7 3 240 13.9
2007-09-27 07:48:07 51°10.466 2°39.447 280.1 2.3 252 13.9
2007-09-27 07:48:12 51°10.465 2°39.441 282.8 2.5 246 14
2007-09-27 07:48:17 51°10.464 2°39.436 283.5 2.5 246 14
2007-09-27 07:48:22 51°10.462 2°39.431 283.4 2.6 245 14
2007-09-27 07:48:27 51°10.461 2°39.426 284.5 2.5 250 14.3
2007-09-27 07:48:32 51°10.459 2°39.421 285.4 2.4 251 14.6
2007-09-27 07:48:37 51°10.457 2°39.416 285.7 2.6 247 14.7
2007-09-27 07:48:42 51°10.455 2°39.411 287.3 2.5 246 15
2007-09-27 07:48:47 51°10.454 2°39.406 287.6 2.5 248 14.9
2007-09-27 07:48:52 51°10.453 2°39.401 289 2.3 248 14.9
2007-09-27 07:48:57 51°10.45 2°39.396 289.8 2.7 238 14.6
2007-09-27 07:49:02 51°10.45 2°39.392 290.7 2.1 258 14.3
2007-09-27 07:49:07 51°10.447 2°39.387 290.9 2.9 236 14.7
2007-09-27 07:49:12 51°10.447 2°39.383 291.3 2.1 248 14.4
2007-09-27 07:49:17 51°10.445 2°39.378 292.8 2.4 245 14.4
2007-09-27 07:49:22 51°10.443 2°39.374 292.2 2.6 236 14.7
2007-09-27 07:49:27 51°10.442 2°39.37 292.4 2.7 234 14.1
2007-09-27 07:49:32 51°10.441 2°39.366 295.2 1.9 242 14
2007-09-27 07:49:37 51°10.438 2°39.361 293.4 2.8 235 14.1
2007-09-27 07:49:42 51°10.438 2°39.358 294.7 1.8 247 14.2
2007-09-27 07:49:47 51°10.436 2°39.354 295.8 2.3 240 14.3
2007-09-27 07:49:52 51°10.434 2°39.35 296.9 2 241 14.5
2007-09-27 07:49:56 51°10.434 2°39.346 297 2.1 245 14.5
2007-09-27 07:50:02 51°10.431 2°39.342 298.3 2.3 233 14.6
2007-09-27 07:50:07 51°10.43 2°39.338 298 2.2 237 14.7
2007-09-27 07:50:12 51°10.428 2°39.334 300.4 2.1 236 14.7
2007-09-27 07:50:16 51°10.427 2°39.331 300.5 2.2 235 14.9
2007-09-27 07:50:22 51°10.424 2°39.326 302.3 2.5 229 14.7
2007-09-27 07:50:27 51°10.424 2°39.323 303 1.7 238 14.5
2007-09-27 07:50:32 51°10.421 2°39.318 304.5 2 233 14.5
2007-09-27 07:50:36 51°10.421 2°39.315 303.7 2.1 241 14.3
2007-09-27 07:50:42 51°10.419 2°39.311 307 2.1 237 14.4
2007-09-27 07:50:47 51°10.416 2°39.307 307.1 2.1 234 14.2
2007-09-27 07:50:52 51°10.415 2°39.303 309.1 1.9 237 14.2
2007-09-27 07:50:56 51°10.414 2°39.3 309.2 2.5 234 14.4
2007-09-27 07:51:02 51°10.412 2°39.297 309.6 1.5 238 14.1
2007-09-27 07:51:07 51°10.409 2°39.292 311 2.7 230 14.4
2007-09-27 07:51:12 51°10.408 2°39.289 310.6 1.7 235 14.2
2007-09-27 07:51:16 51°10.406 2°39.285 312.8 2.2 229 14.2
2007-09-27 07:51:22 51°10.404 2°39.281 311.6 2.2 229 14.4
2007-09-27 07:51:27 51°10.403 2°39.278 312 2 228 14.5
2007-09-27 07:51:32 51°10.401 2°39.273 312.7 2.3 233 14.4
2007-09-27 07:51:37 51°10.399 2°39.27 313 2 235 14.4
2007-09-27 07:51:42 51°10.397 2°39.266 313.3 2.1 232 14.2
2007-09-27 07:51:47 51°10.395 2°39.263 314.5 1.9 229 14.3
2007-09-27 07:51:52 51°10.393 2°39.258 313.1 2.4 232 14.3
2007-09-27 07:51:57 51°10.392 2°39.256 314.6 1.7 231 14.3
2007-09-27 07:52:02 51°10.389 2°39.252 314.4 2.5 227 14.6
2007-09-27 07:52:07 51°10.388 2°39.249 315.1 1.8 234 14.4
2007-09-27 07:52:12 51°10.385 2°39.244 315.7 2.6 227 14.6
2007-09-27 07:52:17 51°10.384 2°39.241 315.4 1.9 230 14.1
2007-09-27 07:52:22 51°10.382 2°39.238 316.6 2.1 228 14
2007-09-27 07:52:27 51°10.379 2°39.233 314.7 2.5 231 14.2
2007-09-27 07:52:32 51°10.378 2°39.231 313.8 2.2 229 14.1
2007-09-27 07:52:36 51°10.376 2°39.227 314.4 2.2 229 14.5
2007-09-27 07:52:42 51°10.373 2°39.223 312.8 2.4 226 14.4
2007-09-27 07:52:47 51°10.372 2°39.221 312.9 2 227 14.4
2007-09-27 07:52:52 51°10.369 2°39.216 312.6 2.7 227 14.4
2007-09-27 07:52:57 51°10.368 2°39.213 311.3 1.7 234 14.5
2007-09-27 07:53:02 51°10.365 2°39.209 312 3.1 224 14.8
2007-09-27 07:53:07 51°10.363 2°39.207 312 1.3 223 14.2
2007-09-27 07:53:12 51°10.361 2°39.203 311.7 2 224 14.3
2007-09-27 07:53:17 51°10.359 2°39.199 310 2.3 229 14.2
2007-09-27 07:53:22 51°10.358 2°39.196 309.8 1.9 230 14.4
2007-09-27 07:53:27 51°10.355 2°39.192 310.6 2.4 225 14.5
2007-09-27 07:53:32 51°10.353 2°39.189 308.7 1.7 230 14.5
2007-09-27 07:53:37 51°10.351 2°39.185 308 2.5 227 14.9
2007-09-27 07:53:42 51°10.349 2°39.182 306.1 1.9 233 15
2007-09-27 07:53:47 51°10.347 2°39.178 307.4 2.3 227 15
2007-09-27 07:53:52 51°10.345 2°39.175 305.9 2.1 228 14.9
2007-09-27 07:53:57 51°10.343 2°39.171 304.8 2 229 14.4
2007-09-27 07:54:02 51°10.341 2°39.168 304.8 2 224 14.6
2007-09-27 07:54:07 51°10.339 2°39.164 302.8 2.4 225 14.7
2007-09-27 07:54:12 51°10.337 2°39.161 303.1 2 227 14.7
2007-09-27 07:54:17 51°10.334 2°39.157 301.9 2.5 220 14.7
2007-09-27 07:54:22 51°10.333 2°39.154 302.2 1.9 231 14.8
2007-09-27 07:54:27 51°10.33 2°39.15 301.5 2.6 223 14.8
2007-09-27 07:54:32 51°10.329 2°39.147 301.7 1.6 235 14.7
2007-09-27 07:54:37 51°10.326 2°39.143 301.3 2.7 225 14.8
2007-09-27 07:54:42 51°10.325 2°39.14 300.4 1.6 240 15
2007-09-27 07:54:47 51°10.322 2°39.135 300.6 2.4 226 14.9
2007-09-27 07:54:52 51°10.321 2°39.132 300 1.8 234 14.9
2007-09-27 07:54:57 51°10.319 2°39.129 300.4 2.3 227 14.8
2007-09-27 07:55:02 51°10.317 2°39.125 300.7 1.9 232 14.8
2007-09-27 07:55:07 51°10.315 2°39.121 300.4 2.3 232 15
2007-09-27 07:55:12 51°10.313 2°39.117 300.4 2.5 229 15.1
2007-09-27 07:55:17 51°10.311 2°39.114 299.6 1.9 236 14.8
2007-09-27 07:55:22 51°10.309 2°39.11 301.4 2.2 230 14.8
2007-09-27 07:55:27 51°10.307 2°39.106 300.4 2.3 228 14.9
2007-09-27 07:55:32 51°10.306 2°39.103 301.1 1.7 237 14.7
2007-09-27 07:55:36 51°10.303 2°39.098 302.5 2.7 228 14.9
2007-09-27 07:55:42 51°10.301 2°39.094 301.1 2.2 235 14.5
2007-09-27 07:55:47 51°10.3 2°39.091 303.1 2.1 228 14.5
2007-09-27 07:55:52 51°10.298 2°39.087 301.9 2.2 233 14.7
2007-09-27 07:55:57 51°10.296 2°39.084 301.8 2.2 233 14.6
2007-09-27 07:56:02 51°10.294 2°39.08 301.8 2.4 231 14.9
2007-09-27 07:56:07 51°10.292 2°39.076 301.7 2.1 235 14.7
2007-09-27 07:56:12 51°10.29 2°39.072 301.4 2.3 231 14.8
2007-09-27 07:56:17 51°10.288 2°39.067 300.9 2.4 233 15
2007-09-27 07:56:22 51°10.286 2°39.064 300.5 2.4 228 15
2007-09-27 07:56:27 51°10.284 2°39.06 300 2.1 230 14.8
2007-09-27 07:56:32 51°10.282 2°39.056 299.7 2.4 233 14.8
2007-09-27 07:56:37 51°10.28 2°39.052 298.3 2.3 231 14.8
2007-09-27 07:56:42 51°10.278 2°39.049 299 1.9 232 14.3
2007-09-27 07:56:47 51°10.276 2°39.045 297.7 2.2 223 14.4
2007-09-27 07:56:52 51°10.274 2°39.041 295.5 2 234 14.6
2007-09-27 07:56:57 51°10.272 2°39.037 295.9 2.7 225 14.6
2007-09-27 07:57:02 51°10.27 2°39.034 294.7 2 236 14.7
2007-09-27 07:57:07 51°10.268 2°39.03 293.6 2.3 229 15
2007-09-27 07:57:12 51°10.266 2°39.026 293.9 2.4 227 14.9
2007-09-27 07:57:17 51°10.264 2°39.023 292.9 2.1 232 15
2007-09-27 07:57:22 51°10.262 2°39.019 292.3 2.3 225 14.7
2007-09-27 07:57:27 51°10.26 2°39.015 292 2.1 229 14.8
2007-09-27 07:57:32 51°10.258 2°39.011 290.1 2.6 226 14.6
2007-09-27 07:57:37 51°10.257 2°39.008 290.3 1.9 232 14.5
2007-09-27 07:57:42 51°10.253 2°39.003 288.1 2.8 224 14.6
2007-09-27 07:57:47 51°10.253 2°39.001 290 1.5 246 14.2
2007-09-27 07:57:52 51°10.25 2°38.997 289.7 2.5 223 14.4
2007-09-27 07:57:57 51°10.248 2°38.993 288.9 2 237 14.3
2007-09-27 07:58:02 51°10.247 2°38.989 290.3 2.3 231 14.6
2007-09-27 07:58:07 51°10.244 2°38.985 289.4 2.4 228 14.5
2007-09-27 07:58:12 51°10.243 2°38.982 290.3 1.8 236 14.6
2007-09-27 07:58:17 51°10.239 2°38.977 289.4 3.2 217 14.9
2007-09-27 07:58:22 51°10.239 2°38.975 288.9 1.2 256 14.4
2007-09-27 07:58:27 51°10.236 2°38.97 289.5 3 220 14.4
2007-09-27 07:58:32 51°10.235 2°38.967 288.3 1.8 242 14.5
2007-09-27 07:58:37 51°10.232 2°38.963 289.7 2.7 221 14.9
2007-09-27 07:58:42 51°10.231 2°38.96 290.1 1.8 242 14.5
2007-09-27 07:58:47 51°10.228 2°38.956 289.4 1.9 228 14.5